sensor_id;sensor_type;location;lat;lon;timestamp;temperature;humidity
25092;DHT22;13082;52.374;4.946;2022-08-19T00:00:19;21.20;99.90
25092;DHT22;13082;52.374;4.946;2022-08-19T00:02:45;21.10;99.90
25092;DHT22;13082;52.374;4.946;2022-08-19T00:05:13;21.10;99.90
25092;DHT22;13082;52.374;4.946;2022-08-19T00:07:39;21.10;99.90
25092;DHT22;13082;52.374;4.946;2022-08-19T00:10:07;21.00;99.90
25092;DHT22;13082;52.374;4.946;2022-08-19T00:12:33;21.00;99.90
25092;DHT22;13082;52.374;4.946;2022-08-19T00:14:59;21.00;99.90
25092;DHT22;13082;52.374;4.946;2022-08-19T00:17:25;20.90;99.90
25092;DHT22;13082;52.374;4.946;2022-08-19T00:19:51;20.90;99.90
25092;DHT22;13082;52.374;4.946;2022-08-19T00:22:16;20.90;99.90
25092;DHT22;13082;52.374;4.946;2022-08-19T00:24:44;20.90;99.90
25092;DHT22;13082;52.374;4.946;2022-08-19T00:27:11;20.80;99.90
25092;DHT22;13082;52.374;4.946;2022-08-19T00:29:36;20.70;99.90
25092;DHT22;13082;52.374;4.946;2022-08-19T00:32:03;20.60;99.90
25092;DHT22;13082;52.374;4.946;2022-08-19T00:34:28;20.50;99.90
25092;DHT22;13082;52.374;4.946;2022-08-19T00:36:55;20.50;99.90
25092;DHT22;13082;52.374;4.946;2022-08-19T00:39:21;20.40;99.90
25092;DHT22;13082;52.374;4.946;2022-08-19T00:41:49;20.40;99.90
25092;DHT22;13082;52.374;4.946;2022-08-19T00:44:21;20.30;99.90
25092;DHT22;13082;52.374;4.946;2022-08-19T00:46:49;20.30;99.90
25092;DHT22;13082;52.374;4.946;2022-08-19T00:49:36;20.30;99.90
25092;DHT22;13082;52.374;4.946;2022-08-19T00:52:08;20.40;99.90
25092;DHT22;13082;52.374;4.946;2022-08-19T00:54:37;20.40;99.90
25092;DHT22;13082;52.374;4.946;2022-08-19T00:57:06;20.50;99.90
25092;DHT22;13082;52.374;4.946;2022-08-19T00:59:35;20.40;99.90
25092;DHT22;13082;52.374;4.946;2022-08-19T01:02:02;20.50;99.90
25092;DHT22;13082;52.374;4.946;2022-08-19T01:04:30;20.50;99.90
25092;DHT22;13082;52.374;4.946;2022-08-19T01:06:56;20.60;99.90
25092;DHT22;13082;52.374;4.946;2022-08-19T01:09:22;20.70;99.90
25092;DHT22;13082;52.374;4.946;2022-08-19T01:11:48;20.60;99.90
25092;DHT22;13082;52.374;4.946;2022-08-19T01:14:14;20.60;99.90
25092;DHT22;13082;52.374;4.946;2022-08-19T01:16:41;20.50;99.90
25092;DHT22;13082;52.374;4.946;2022-08-19T01:19:29;20.40;99.90
25092;DHT22;13082;52.374;4.946;2022-08-19T01:22:08;20.40;99.90
25092;DHT22;13082;52.374;4.946;2022-08-19T01:24:35;20.30;99.90
25092;DHT22;13082;52.374;4.946;2022-08-19T01:27:04;20.20;99.90
25092;DHT22;13082;52.374;4.946;2022-08-19T01:29:30;20.20;99.90
25092;DHT22;13082;52.374;4.946;2022-08-19T01:31:55;20.30;99.90
25092;DHT22;13082;52.374;4.946;2022-08-19T01:34:21;20.30;99.90
25092;DHT22;13082;52.374;4.946;2022-08-19T01:36:48;20.30;99.90
25092;DHT22;13082;52.374;4.946;2022-08-19T01:39:24;20.30;99.90
25092;DHT22;13082;52.374;4.946;2022-08-19T01:41:51;20.30;99.90
25092;DHT22;13082;52.374;4.946;2022-08-19T01:44:20;20.40;99.90
25092;DHT22;13082;52.374;4.946;2022-08-19T01:46:49;20.40;99.90
25092;DHT22;13082;52.374;4.946;2022-08-19T01:49:19;20.40;99.90
25092;DHT22;13082;52.374;4.946;2022-08-19T01:51:45;20.30;99.90
25092;DHT22;13082;52.374;4.946;2022-08-19T01:54:13;20.30;99.90
25092;DHT22;13082;52.374;4.946;2022-08-19T01:56:39;20.20;99.90
25092;DHT22;13082;52.374;4.946;2022-08-19T01:59:10;20.20;99.90
25092;DHT22;13082;52.374;4.946;2022-08-19T02:01:37;20.30;99.90
25092;DHT22;13082;52.374;4.946;2022-08-19T02:04:03;20.30;99.90
25092;DHT22;13082;52.374;4.946;2022-08-19T02:06:29;20.30;99.90
25092;DHT22;13082;52.374;4.946;2022-08-19T02:08:55;20.40;99.90
25092;DHT22;13082;52.374;4.946;2022-08-19T02:11:23;20.30;99.90
25092;DHT22;13082;52.374;4.946;2022-08-19T02:13:49;20.30;99.90
25092;DHT22;13082;52.374;4.946;2022-08-19T02:16:17;20.40;99.90
25092;DHT22;13082;52.374;4.946;2022-08-19T02:18:43;20.30;99.90
25092;DHT22;13082;52.374;4.946;2022-08-19T02:21:09;20.30;99.90
25092;DHT22;13082;52.374;4.946;2022-08-19T02:23:36;20.30;99.90
25092;DHT22;13082;52.374;4.946;2022-08-19T02:26:01;20.30;99.90
25092;DHT22;13082;52.374;4.946;2022-08-19T02:28:27;20.20;99.90
25092;DHT22;13082;52.374;4.946;2022-08-19T02:30:53;20.20;99.90
25092;DHT22;13082;52.374;4.946;2022-08-19T02:33:18;20.20;99.90
25092;DHT22;13082;52.374;4.946;2022-08-19T02:35:45;20.20;99.90
25092;DHT22;13082;52.374;4.946;2022-08-19T02:38:11;20.20;99.90
25092;DHT22;13082;52.374;4.946;2022-08-19T02:41:06;20.10;99.90
25092;DHT22;13082;52.374;4.946;2022-08-19T02:43:33;20.10;99.90
25092;DHT22;13082;52.374;4.946;2022-08-19T02:46:12;20.10;99.90
25092;DHT22;13082;52.374;4.946;2022-08-19T02:48:38;20.20;99.90
25092;DHT22;13082;52.374;4.946;2022-08-19T02:51:03;20.10;99.90
25092;DHT22;13082;52.374;4.946;2022-08-19T02:53:31;20.00;99.90
25092;DHT22;13082;52.374;4.946;2022-08-19T02:55:56;20.00;99.90
25092;DHT22;13082;52.374;4.946;2022-08-19T02:58:23;20.00;99.90
25092;DHT22;13082;52.374;4.946;2022-08-19T03:00:51;20.00;99.90
25092;DHT22;13082;52.374;4.946;2022-08-19T03:03:18;20.10;99.90
25092;DHT22;13082;52.374;4.946;2022-08-19T03:05:44;20.10;99.90
25092;DHT22;13082;52.374;4.946;2022-08-19T03:08:12;20.10;99.90
25092;DHT22;13082;52.374;4.946;2022-08-19T03:10:43;20.10;99.90
25092;DHT22;13082;52.374;4.946;2022-08-19T03:13:17;20.10;99.90
25092;DHT22;13082;52.374;4.946;2022-08-19T03:15:46;20.00;99.90
25092;DHT22;13082;52.374;4.946;2022-08-19T03:18:12;20.00;99.90
25092;DHT22;13082;52.374;4.946;2022-08-19T03:20:45;20.00;99.90
25092;DHT22;13082;52.374;4.946;2022-08-19T03:23:11;19.90;99.90
25092;DHT22;13082;52.374;4.946;2022-08-19T03:25:42;19.90;99.90
25092;DHT22;13082;52.374;4.946;2022-08-19T03:28:13;19.90;99.90
25092;DHT22;13082;52.374;4.946;2022-08-19T03:30:40;19.90;99.90
25092;DHT22;13082;52.374;4.946;2022-08-19T03:33:07;20.00;99.90
25092;DHT22;13082;52.374;4.946;2022-08-19T03:35:33;20.00;99.90
25092;DHT22;13082;52.374;4.946;2022-08-19T03:38:02;19.80;99.90
25092;DHT22;13082;52.374;4.946;2022-08-19T03:40:28;19.80;99.90
25092;DHT22;13082;52.374;4.946;2022-08-19T03:42:56;19.80;99.90
25092;DHT22;13082;52.374;4.946;2022-08-19T03:45:22;19.80;99.90
25092;DHT22;13082;52.374;4.946;2022-08-19T03:47:48;19.80;99.90
25092;DHT22;13082;52.374;4.946;2022-08-19T03:50:13;19.80;99.90
25092;DHT22;13082;52.374;4.946;2022-08-19T03:52:39;19.80;99.90
25092;DHT22;13082;52.374;4.946;2022-08-19T03:55:05;19.80;99.90
25092;DHT22;13082;52.374;4.946;2022-08-19T03:57:31;19.80;99.90
25092;DHT22;13082;52.374;4.946;2022-08-19T03:59:59;19.80;99.90
25092;DHT22;13082;52.374;4.946;2022-08-19T04:02:24;19.80;99.90
25092;DHT22;13082;52.374;4.946;2022-08-19T04:04:53;19.70;99.90
25092;DHT22;13082;52.374;4.946;2022-08-19T04:07:19;19.70;99.90
25092;DHT22;13082;52.374;4.946;2022-08-19T04:09:47;19.70;99.90
25092;DHT22;13082;52.374;4.946;2022-08-19T04:12:12;19.60;99.90
25092;DHT22;13082;52.374;4.946;2022-08-19T04:14:38;19.70;99.90
25092;DHT22;13082;52.374;4.946;2022-08-19T04:17:05;19.70;99.90
25092;DHT22;13082;52.374;4.946;2022-08-19T04:19:31;19.70;99.90
25092;DHT22;13082;52.374;4.946;2022-08-19T04:21:58;19.60;99.90
25092;DHT22;13082;52.374;4.946;2022-08-19T04:24:24;19.50;99.90
25092;DHT22;13082;52.374;4.946;2022-08-19T04:26:50;19.50;99.90
25092;DHT22;13082;52.374;4.946;2022-08-19T04:29:21;19.40;99.90
25092;DHT22;13082;52.374;4.946;2022-08-19T04:31:48;19.50;99.90
25092;DHT22;13082;52.374;4.946;2022-08-19T04:34:17;19.40;99.90
25092;DHT22;13082;52.374;4.946;2022-08-19T04:36:44;19.50;99.90
25092;DHT22;13082;52.374;4.946;2022-08-19T04:39:14;19.60;99.90
25092;DHT22;13082;52.374;4.946;2022-08-19T04:41:40;19.80;99.90
25092;DHT22;13082;52.374;4.946;2022-08-19T04:44:25;19.90;99.90
25092;DHT22;13082;52.374;4.946;2022-08-19T04:46:51;19.90;99.90
25092;DHT22;13082;52.374;4.946;2022-08-19T04:49:20;19.80;99.90
25092;DHT22;13082;52.374;4.946;2022-08-19T04:51:48;19.70;99.90
25092;DHT22;13082;52.374;4.946;2022-08-19T04:54:16;19.70;99.90
25092;DHT22;13082;52.374;4.946;2022-08-19T04:56:42;19.60;99.90
25092;DHT22;13082;52.374;4.946;2022-08-19T04:59:09;19.50;99.90
25092;DHT22;13082;52.374;4.946;2022-08-19T05:01:36;19.40;99.90
25092;DHT22;13082;52.374;4.946;2022-08-19T05:04:04;19.40;99.90
25092;DHT22;13082;52.374;4.946;2022-08-19T05:06:31;19.50;99.90
25092;DHT22;13082;52.374;4.946;2022-08-19T05:09:00;19.50;99.90
25092;DHT22;13082;52.374;4.946;2022-08-19T05:11:29;19.50;99.90
25092;DHT22;13082;52.374;4.946;2022-08-19T05:13:55;19.50;99.90
25092;DHT22;13082;52.374;4.946;2022-08-19T05:16:23;19.50;99.90
25092;DHT22;13082;52.374;4.946;2022-08-19T05:18:50;19.50;99.90
25092;DHT22;13082;52.374;4.946;2022-08-19T05:21:34;19.50;99.90
25092;DHT22;13082;52.374;4.946;2022-08-19T05:24:21;19.50;99.90
25092;DHT22;13082;52.374;4.946;2022-08-19T05:26:49;19.50;99.90
25092;DHT22;13082;52.374;4.946;2022-08-19T05:29:18;19.50;99.90
25092;DHT22;13082;52.374;4.946;2022-08-19T05:31:45;19.40;99.90
25092;DHT22;13082;52.374;4.946;2022-08-19T05:34:12;19.50;99.90
25092;DHT22;13082;52.374;4.946;2022-08-19T05:36:40;19.50;99.90
25092;DHT22;13082;52.374;4.946;2022-08-19T05:39:07;19.40;99.90
25092;DHT22;13082;52.374;4.946;2022-08-19T05:41:34;19.40;99.90
25092;DHT22;13082;52.374;4.946;2022-08-19T05:44:04;19.40;99.90
25092;DHT22;13082;52.374;4.946;2022-08-19T05:46:35;19.40;99.90
25092;DHT22;13082;52.374;4.946;2022-08-19T05:49:03;19.40;99.90
25092;DHT22;13082;52.374;4.946;2022-08-19T05:51:29;19.50;99.90
25092;DHT22;13082;52.374;4.946;2022-08-19T05:53:55;19.50;99.90
25092;DHT22;13082;52.374;4.946;2022-08-19T05:56:20;19.50;99.90
25092;DHT22;13082;52.374;4.946;2022-08-19T05:58:46;19.60;99.90
25092;DHT22;13082;52.374;4.946;2022-08-19T06:01:15;19.60;99.90
25092;DHT22;13082;52.374;4.946;2022-08-19T06:03:40;19.60;99.90
25092;DHT22;13082;52.374;4.946;2022-08-19T06:06:07;19.50;99.90
25092;DHT22;13082;52.374;4.946;2022-08-19T06:08:33;19.50;99.90
25092;DHT22;13082;52.374;4.946;2022-08-19T06:11:12;19.40;99.90
25092;DHT22;13082;52.374;4.946;2022-08-19T06:13:39;19.40;99.90
25092;DHT22;13082;52.374;4.946;2022-08-19T06:16:05;19.40;99.90
25092;DHT22;13082;52.374;4.946;2022-08-19T06:18:30;19.20;99.90
25092;DHT22;13082;52.374;4.946;2022-08-19T06:20:56;19.30;99.90
25092;DHT22;13082;52.374;4.946;2022-08-19T06:23:22;19.30;99.90
25092;DHT22;13082;52.374;4.946;2022-08-19T06:25:47;19.20;99.90
25092;DHT22;13082;52.374;4.946;2022-08-19T06:28:13;19.20;99.90
25092;DHT22;13082;52.374;4.946;2022-08-19T06:30:38;19.20;99.90
25092;DHT22;13082;52.374;4.946;2022-08-19T06:33:04;19.30;99.90
25092;DHT22;13082;52.374;4.946;2022-08-19T06:35:31;19.30;99.90
25092;DHT22;13082;52.374;4.946;2022-08-19T06:37:56;19.40;99.90
25092;DHT22;13082;52.374;4.946;2022-08-19T06:40:22;19.40;99.90
25092;DHT22;13082;52.374;4.946;2022-08-19T06:42:47;19.40;99.90
25092;DHT22;13082;52.374;4.946;2022-08-19T06:45:13;19.50;99.90
25092;DHT22;13082;52.374;4.946;2022-08-19T06:47:40;19.60;99.90
25092;DHT22;13082;52.374;4.946;2022-08-19T06:50:05;19.70;99.90
25092;DHT22;13082;52.374;4.946;2022-08-19T06:52:35;19.60;99.90
25092;DHT22;13082;52.374;4.946;2022-08-19T06:55:02;19.60;99.90
25092;DHT22;13082;52.374;4.946;2022-08-19T06:57:28;19.70;99.90
25092;DHT22;13082;52.374;4.946;2022-08-19T06:59:58;19.60;99.90
25092;DHT22;13082;52.374;4.946;2022-08-19T07:02:25;19.70;99.90
25092;DHT22;13082;52.374;4.946;2022-08-19T07:04:52;19.80;99.90
25092;DHT22;13082;52.374;4.946;2022-08-19T07:07:19;19.90;99.90
25092;DHT22;13082;52.374;4.946;2022-08-19T07:09:45;19.90;99.90
25092;DHT22;13082;52.374;4.946;2022-08-19T07:12:13;20.00;99.90
25092;DHT22;13082;52.374;4.946;2022-08-19T07:14:41;19.90;99.90
25092;DHT22;13082;52.374;4.946;2022-08-19T07:17:10;19.90;99.90
25092;DHT22;13082;52.374;4.946;2022-08-19T07:19:37;19.90;99.90
25092;DHT22;13082;52.374;4.946;2022-08-19T07:22:05;20.00;99.90
25092;DHT22;13082;52.374;4.946;2022-08-19T07:24:31;20.10;99.90
25092;DHT22;13082;52.374;4.946;2022-08-19T07:26:59;20.20;99.90
25092;DHT22;13082;52.374;4.946;2022-08-19T07:29:26;20.30;99.90
25092;DHT22;13082;52.374;4.946;2022-08-19T07:31:54;20.30;99.90
25092;DHT22;13082;52.374;4.946;2022-08-19T07:34:25;20.40;99.90
25092;DHT22;13082;52.374;4.946;2022-08-19T07:36:51;20.50;99.90
25092;DHT22;13082;52.374;4.946;2022-08-19T07:39:20;20.60;99.90
25092;DHT22;13082;52.374;4.946;2022-08-19T07:41:47;20.70;99.90
25092;DHT22;13082;52.374;4.946;2022-08-19T07:44:13;20.90;99.90
25092;DHT22;13082;52.374;4.946;2022-08-19T07:46:42;21.00;99.90
25092;DHT22;13082;52.374;4.946;2022-08-19T07:49:10;21.10;99.90
25092;DHT22;13082;52.374;4.946;2022-08-19T07:51:53;21.20;99.90
25092;DHT22;13082;52.374;4.946;2022-08-19T07:54:20;21.30;99.90
25092;DHT22;13082;52.374;4.946;2022-08-19T07:56:46;21.30;99.90
25092;DHT22;13082;52.374;4.946;2022-08-19T07:59:12;21.40;99.90
25092;DHT22;13082;52.374;4.946;2022-08-19T08:01:38;21.40;99.90
25092;DHT22;13082;52.374;4.946;2022-08-19T08:04:06;21.40;99.90
25092;DHT22;13082;52.374;4.946;2022-08-19T08:06:51;21.50;99.90
25092;DHT22;13082;52.374;4.946;2022-08-19T08:09:38;21.50;99.90
25092;DHT22;13082;52.374;4.946;2022-08-19T08:12:26;21.60;99.90
25092;DHT22;13082;52.374;4.946;2022-08-19T08:14:59;21.80;99.90
25092;DHT22;13082;52.374;4.946;2022-08-19T08:17:30;21.80;99.90
25092;DHT22;13082;52.374;4.946;2022-08-19T08:19:56;21.90;99.90
25092;DHT22;13082;52.374;4.946;2022-08-19T08:22:23;21.90;99.90
25092;DHT22;13082;52.374;4.946;2022-08-19T08:25:15;22.00;99.90
25092;DHT22;13082;52.374;4.946;2022-08-19T08:27:43;22.00;99.90
25092;DHT22;13082;52.374;4.946;2022-08-19T08:30:18;22.10;99.90
25092;DHT22;13082;52.374;4.946;2022-08-19T08:32:44;22.20;99.90
25092;DHT22;13082;52.374;4.946;2022-08-19T08:35:13;22.40;99.90
25092;DHT22;13082;52.374;4.946;2022-08-19T08:37:39;22.50;99.90
25092;DHT22;13082;52.374;4.946;2022-08-19T08:40:15;22.50;99.90
25092;DHT22;13082;52.374;4.946;2022-08-19T08:42:50;22.70;99.90
25092;DHT22;13082;52.374;4.946;2022-08-19T08:45:19;22.80;99.90
25092;DHT22;13082;52.374;4.946;2022-08-19T08:47:48;22.80;99.90
25092;DHT22;13082;52.374;4.946;2022-08-19T08:50:47;22.80;99.90
25092;DHT22;13082;52.374;4.946;2022-08-19T08:53:18;22.80;99.90
25092;DHT22;13082;52.374;4.946;2022-08-19T08:55:46;22.80;99.90
25092;DHT22;13082;52.374;4.946;2022-08-19T08:58:15;22.70;99.90
25092;DHT22;13082;52.374;4.946;2022-08-19T09:00:45;22.70;99.90
25092;DHT22;13082;52.374;4.946;2022-08-19T09:03:19;22.70;99.90
25092;DHT22;13082;52.374;4.946;2022-08-19T09:06:12;22.80;99.90
25092;DHT22;13082;52.374;4.946;2022-08-19T09:09:17;22.90;99.90
25092;DHT22;13082;52.374;4.946;2022-08-19T09:14:57;23.10;99.90
25092;DHT22;13082;52.374;4.946;2022-08-19T09:17:27;23.10;99.90
25092;DHT22;13082;52.374;4.946;2022-08-19T09:23:00;23.00;99.90
25092;DHT22;13082;52.374;4.946;2022-08-19T09:25:26;23.10;99.90
25092;DHT22;13082;52.374;4.946;2022-08-19T09:27:53;23.10;99.90
25092;DHT22;13082;52.374;4.946;2022-08-19T09:30:24;23.10;99.90
25092;DHT22;13082;52.374;4.946;2022-08-19T09:32:51;23.20;99.90
25092;DHT22;13082;52.374;4.946;2022-08-19T09:35:25;23.20;99.90
25092;DHT22;13082;52.374;4.946;2022-08-19T09:37:51;23.30;99.90
25092;DHT22;13082;52.374;4.946;2022-08-19T09:40:18;23.30;99.90
25092;DHT22;13082;52.374;4.946;2022-08-19T09:42:44;23.30;99.90
25092;DHT22;13082;52.374;4.946;2022-08-19T09:45:13;23.30;99.90
25092;DHT22;13082;52.374;4.946;2022-08-19T09:47:39;23.10;99.90
25092;DHT22;13082;52.374;4.946;2022-08-19T09:50:07;23.10;99.90
25092;DHT22;13082;52.374;4.946;2022-08-19T09:52:33;23.10;99.90
25092;DHT22;13082;52.374;4.946;2022-08-19T09:55:05;23.20;99.90
25092;DHT22;13082;52.374;4.946;2022-08-19T09:57:32;23.30;99.90
25092;DHT22;13082;52.374;4.946;2022-08-19T09:59:58;23.40;99.90
25092;DHT22;13082;52.374;4.946;2022-08-19T10:02:24;23.40;99.90
25092;DHT22;13082;52.374;4.946;2022-08-19T10:04:50;23.40;99.90
25092;DHT22;13082;52.374;4.946;2022-08-19T10:07:34;23.30;99.90
25092;DHT22;13082;52.374;4.946;2022-08-19T10:10:01;23.20;99.90
25092;DHT22;13082;52.374;4.946;2022-08-19T10:12:26;23.20;99.90
25092;DHT22;13082;52.374;4.946;2022-08-19T10:14:52;23.30;99.90
25092;DHT22;13082;52.374;4.946;2022-08-19T10:17:19;23.30;99.90
25092;DHT22;13082;52.374;4.946;2022-08-19T10:19:45;23.20;99.90
25092;DHT22;13082;52.374;4.946;2022-08-19T10:22:12;23.30;99.90
25092;DHT22;13082;52.374;4.946;2022-08-19T10:24:39;23.30;99.90
25092;DHT22;13082;52.374;4.946;2022-08-19T10:27:04;23.30;99.90
25092;DHT22;13082;52.374;4.946;2022-08-19T10:29:31;23.30;99.90
25092;DHT22;13082;52.374;4.946;2022-08-19T10:31:58;23.30;99.90
25092;DHT22;13082;52.374;4.946;2022-08-19T10:34:26;23.30;99.90
25092;DHT22;13082;52.374;4.946;2022-08-19T10:36:52;23.20;99.90
25092;DHT22;13082;52.374;4.946;2022-08-19T10:39:18;23.20;99.90
25092;DHT22;13082;52.374;4.946;2022-08-19T10:41:43;23.30;99.90
25092;DHT22;13082;52.374;4.946;2022-08-19T10:44:11;23.40;99.90
25092;DHT22;13082;52.374;4.946;2022-08-19T10:46:40;23.40;99.90
25092;DHT22;13082;52.374;4.946;2022-08-19T10:49:09;23.40;99.90
25092;DHT22;13082;52.374;4.946;2022-08-19T10:51:35;23.50;99.90
25092;DHT22;13082;52.374;4.946;2022-08-19T10:54:20;23.50;99.90
25092;DHT22;13082;52.374;4.946;2022-08-19T10:56:46;23.50;99.90
25092;DHT22;13082;52.374;4.946;2022-08-19T10:59:23;23.50;99.90
25092;DHT22;13082;52.374;4.946;2022-08-19T11:01:50;23.50;99.90
25092;DHT22;13082;52.374;4.946;2022-08-19T11:04:16;23.50;99.90
25092;DHT22;13082;52.374;4.946;2022-08-19T11:06:46;23.40;99.90
25092;DHT22;13082;52.374;4.946;2022-08-19T11:09:19;23.40;99.90
25092;DHT22;13082;52.374;4.946;2022-08-19T11:11:45;23.40;99.90
25092;DHT22;13082;52.374;4.946;2022-08-19T11:14:12;23.40;99.90
25092;DHT22;13082;52.374;4.946;2022-08-19T11:16:40;23.50;99.90
25092;DHT22;13082;52.374;4.946;2022-08-19T11:19:07;23.50;99.90
25092;DHT22;13082;52.374;4.946;2022-08-19T11:21:36;23.50;99.90
25092;DHT22;13082;52.374;4.946;2022-08-19T11:24:06;23.50;99.90
25092;DHT22;13082;52.374;4.946;2022-08-19T11:26:33;23.50;99.90
25092;DHT22;13082;52.374;4.946;2022-08-19T11:28:59;23.40;99.90
25092;DHT22;13082;52.374;4.946;2022-08-19T11:31:33;23.40;99.90
25092;DHT22;13082;52.374;4.946;2022-08-19T11:34:03;23.40;99.90
25092;DHT22;13082;52.374;4.946;2022-08-19T11:36:30;23.50;99.90
25092;DHT22;13082;52.374;4.946;2022-08-19T11:38:57;23.50;99.90
25092;DHT22;13082;52.374;4.946;2022-08-19T11:41:24;23.50;99.90
25092;DHT22;13082;52.374;4.946;2022-08-19T11:43:51;23.50;99.90
25092;DHT22;13082;52.374;4.946;2022-08-19T11:46:18;23.50;99.90
25092;DHT22;13082;52.374;4.946;2022-08-19T11:48:43;23.50;99.90
25092;DHT22;13082;52.374;4.946;2022-08-19T11:51:12;23.50;99.90
25092;DHT22;13082;52.374;4.946;2022-08-19T11:53:38;23.60;99.90
25092;DHT22;13082;52.374;4.946;2022-08-19T11:56:06;23.70;99.90
25092;DHT22;13082;52.374;4.946;2022-08-19T11:58:32;23.70;99.90
25092;DHT22;13082;52.374;4.946;2022-08-19T12:00:58;23.70;99.90
25092;DHT22;13082;52.374;4.946;2022-08-19T12:03:24;23.70;99.90
25092;DHT22;13082;52.374;4.946;2022-08-19T12:05:50;23.80;99.90
25092;DHT22;13082;52.374;4.946;2022-08-19T12:08:16;23.80;99.90
25092;DHT22;13082;52.374;4.946;2022-08-19T12:10:42;23.90;99.90
25092;DHT22;13082;52.374;4.946;2022-08-19T12:13:09;23.80;99.90
25092;DHT22;13082;52.374;4.946;2022-08-19T12:15:39;23.90;99.90
25092;DHT22;13082;52.374;4.946;2022-08-19T12:18:07;23.90;99.90
25092;DHT22;13082;52.374;4.946;2022-08-19T12:20:37;23.90;99.90
25092;DHT22;13082;52.374;4.946;2022-08-19T12:23:05;23.90;99.90
25092;DHT22;13082;52.374;4.946;2022-08-19T12:25:30;23.90;99.90
25092;DHT22;13082;52.374;4.946;2022-08-19T12:27:57;24.00;99.90
25092;DHT22;13082;52.374;4.946;2022-08-19T12:30:23;24.00;99.90
25092;DHT22;13082;52.374;4.946;2022-08-19T12:32:48;23.90;99.90
25092;DHT22;13082;52.374;4.946;2022-08-19T12:35:16;23.90;99.90
25092;DHT22;13082;52.374;4.946;2022-08-19T12:37:42;23.90;99.90
25092;DHT22;13082;52.374;4.946;2022-08-19T12:40:10;23.80;99.90
25092;DHT22;13082;52.374;4.946;2022-08-19T12:42:39;23.80;99.90
25092;DHT22;13082;52.374;4.946;2022-08-19T12:45:10;23.80;99.90
25092;DHT22;13082;52.374;4.946;2022-08-19T12:47:36;23.80;99.90
25092;DHT22;13082;52.374;4.946;2022-08-19T12:50:02;23.90;99.90
25092;DHT22;13082;52.374;4.946;2022-08-19T12:52:27;23.90;99.90
25092;DHT22;13082;52.374;4.946;2022-08-19T12:54:55;23.90;99.90
25092;DHT22;13082;52.374;4.946;2022-08-19T12:57:26;23.90;99.90
25092;DHT22;13082;52.374;4.946;2022-08-19T12:59:52;23.90;99.90
25092;DHT22;13082;52.374;4.946;2022-08-19T13:02:21;23.90;99.90
25092;DHT22;13082;52.374;4.946;2022-08-19T13:04:47;24.00;99.90
25092;DHT22;13082;52.374;4.946;2022-08-19T13:07:13;24.10;99.90
25092;DHT22;13082;52.374;4.946;2022-08-19T13:09:38;24.20;99.90
25092;DHT22;13082;52.374;4.946;2022-08-19T13:12:07;24.30;99.90
25092;DHT22;13082;52.374;4.946;2022-08-19T13:14:38;24.50;99.90
25092;DHT22;13082;52.374;4.946;2022-08-19T13:17:05;24.40;99.90
25092;DHT22;13082;52.374;4.946;2022-08-19T13:19:31;24.50;99.90
25092;DHT22;13082;52.374;4.946;2022-08-19T13:21:56;24.60;99.90
25092;DHT22;13082;52.374;4.946;2022-08-19T13:24:23;24.70;99.90
25092;DHT22;13082;52.374;4.946;2022-08-19T13:26:49;24.80;99.90
25092;DHT22;13082;52.374;4.946;2022-08-19T13:29:14;24.90;99.90
25092;DHT22;13082;52.374;4.946;2022-08-19T13:31:58;24.90;99.90
25092;DHT22;13082;52.374;4.946;2022-08-19T13:34:42;24.90;99.90
25092;DHT22;13082;52.374;4.946;2022-08-19T13:37:07;25.00;99.90
25092;DHT22;13082;52.374;4.946;2022-08-19T13:39:34;25.00;99.90
25092;DHT22;13082;52.374;4.946;2022-08-19T13:42:00;24.90;99.90
25092;DHT22;13082;52.374;4.946;2022-08-19T13:44:26;24.90;99.90
25092;DHT22;13082;52.374;4.946;2022-08-19T13:46:55;24.80;99.90
25092;DHT22;13082;52.374;4.946;2022-08-19T13:49:25;24.80;99.90
25092;DHT22;13082;52.374;4.946;2022-08-19T13:51:50;24.60;99.90
25092;DHT22;13082;52.374;4.946;2022-08-19T13:54:16;24.70;99.90
25092;DHT22;13082;52.374;4.946;2022-08-19T13:56:44;24.70;99.90
25092;DHT22;13082;52.374;4.946;2022-08-19T13:59:10;24.70;99.90
25092;DHT22;13082;52.374;4.946;2022-08-19T14:01:36;24.80;99.90
25092;DHT22;13082;52.374;4.946;2022-08-19T14:04:02;24.80;99.90
25092;DHT22;13082;52.374;4.946;2022-08-19T14:06:28;24.80;99.90
25092;DHT22;13082;52.374;4.946;2022-08-19T14:08:54;24.70;99.90
25092;DHT22;13082;52.374;4.946;2022-08-19T14:11:20;24.70;99.90
25092;DHT22;13082;52.374;4.946;2022-08-19T14:13:45;24.70;99.90
25092;DHT22;13082;52.374;4.946;2022-08-19T14:16:13;24.80;99.90
25092;DHT22;13082;52.374;4.946;2022-08-19T14:18:39;24.80;99.90
25092;DHT22;13082;52.374;4.946;2022-08-19T14:21:05;24.70;99.90
25092;DHT22;13082;52.374;4.946;2022-08-19T14:23:32;24.80;99.90
25092;DHT22;13082;52.374;4.946;2022-08-19T14:26:10;24.90;99.90
25092;DHT22;13082;52.374;4.946;2022-08-19T14:28:37;25.00;99.90
25092;DHT22;13082;52.374;4.946;2022-08-19T14:31:03;25.00;99.90
25092;DHT22;13082;52.374;4.946;2022-08-19T14:33:28;25.10;99.90
25092;DHT22;13082;52.374;4.946;2022-08-19T14:35:54;25.10;99.90
25092;DHT22;13082;52.374;4.946;2022-08-19T14:38:20;25.20;99.90
25092;DHT22;13082;52.374;4.946;2022-08-19T14:40:45;25.20;99.90
25092;DHT22;13082;52.374;4.946;2022-08-19T14:43:12;25.20;99.90
25092;DHT22;13082;52.374;4.946;2022-08-19T14:45:39;25.30;99.90
25092;DHT22;13082;52.374;4.946;2022-08-19T14:48:07;25.30;99.90
25092;DHT22;13082;52.374;4.946;2022-08-19T14:50:34;25.40;99.90
25092;DHT22;13082;52.374;4.946;2022-08-19T14:53:04;25.30;99.90
25092;DHT22;13082;52.374;4.946;2022-08-19T14:55:30;25.20;99.90
25092;DHT22;13082;52.374;4.946;2022-08-19T14:57:57;25.20;99.90
25092;DHT22;13082;52.374;4.946;2022-08-19T15:00:23;25.20;99.90
25092;DHT22;13082;52.374;4.946;2022-08-19T15:02:50;25.10;99.90
25092;DHT22;13082;52.374;4.946;2022-08-19T15:05:16;25.00;99.90
25092;DHT22;13082;52.374;4.946;2022-08-19T15:07:42;25.10;99.90
25092;DHT22;13082;52.374;4.946;2022-08-19T15:10:09;25.10;99.90
25092;DHT22;13082;52.374;4.946;2022-08-19T15:12:35;25.20;99.90
25092;DHT22;13082;52.374;4.946;2022-08-19T15:15:02;25.20;99.90
25092;DHT22;13082;52.374;4.946;2022-08-19T15:17:28;25.10;99.90
25092;DHT22;13082;52.374;4.946;2022-08-19T15:19:55;25.10;99.90
25092;DHT22;13082;52.374;4.946;2022-08-19T15:22:21;25.00;99.90
25092;DHT22;13082;52.374;4.946;2022-08-19T15:24:47;24.90;99.90
25092;DHT22;13082;52.374;4.946;2022-08-19T15:27:13;24.80;99.90
25092;DHT22;13082;52.374;4.946;2022-08-19T15:29:39;24.70;99.90
25092;DHT22;13082;52.374;4.946;2022-08-19T15:32:08;24.60;99.90
25092;DHT22;13082;52.374;4.946;2022-08-19T15:34:34;24.70;99.90
25092;DHT22;13082;52.374;4.946;2022-08-19T15:37:01;24.60;99.90
25092;DHT22;13082;52.374;4.946;2022-08-19T15:39:27;24.50;99.90
25092;DHT22;13082;52.374;4.946;2022-08-19T15:41:53;24.50;99.90